sensor_id;sensor_type;location;lat;lon;timestamp;P1;durP1;ratioP1;P2;durP2;ratioP2
49458;SDS011;35354;51.296;16.924;2023-06-19T00:00:41;9.30;;;8.43;;
49458;SDS011;35354;51.296;16.924;2023-06-19T00:03:07;10.23;;;9.18;;
49458;SDS011;35354;51.296;16.924;2023-06-19T00:05:32;10.30;;;9.40;;
49458;SDS011;35354;51.296;16.924;2023-06-19T00:07:58;8.85;;;8.05;;
49458;SDS011;35354;51.296;16.924;2023-06-19T00:10:24;10.00;;;8.80;;
49458;SDS011;35354;51.296;16.924;2023-06-19T00:12:49;10.27;;;9.38;;
49458;SDS011;35354;51.296;16.924;2023-06-19T00:15:14;10.27;;;9.27;;
49458;SDS011;35354;51.296;16.924;2023-06-19T00:17:40;13.55;;;10.23;;
49458;SDS011;35354;51.296;16.924;2023-06-19T00:20:06;10.75;;;9.65;;
49458;SDS011;35354;51.296;16.924;2023-06-19T00:22:32;10.68;;;9.57;;
49458;SDS011;35354;51.296;16.924;2023-06-19T00:24:57;9.95;;;9.00;;
49458;SDS011;35354;51.296;16.924;2023-06-19T00:27:23;10.38;;;9.38;;
49458;SDS011;35354;51.296;16.924;2023-06-19T00:29:50;9.82;;;8.93;;
49458;SDS011;35354;51.296;16.924;2023-06-19T00:32:16;10.23;;;9.23;;
49458;SDS011;35354;51.296;16.924;2023-06-19T00:34:41;9.90;;;8.98;;
49458;SDS011;35354;51.296;16.924;2023-06-19T00:37:08;10.07;;;9.07;;
49458;SDS011;35354;51.296;16.924;2023-06-19T00:39:34;10.65;;;9.65;;
49458;SDS011;35354;51.296;16.924;2023-06-19T00:42:00;10.85;;;9.75;;
49458;SDS011;35354;51.296;16.924;2023-06-19T00:44:26;10.43;;;9.38;;
49458;SDS011;35354;51.296;16.924;2023-06-19T00:46:53;10.23;;;9.23;;
49458;SDS011;35354;51.296;16.924;2023-06-19T00:49:22;10.93;;;9.93;;
49458;SDS011;35354;51.296;16.924;2023-06-19T00:51:47;10.40;;;8.48;;
49458;SDS011;35354;51.296;16.924;2023-06-19T00:54:12;10.73;;;9.73;;
49458;SDS011;35354;51.296;16.924;2023-06-19T00:56:38;12.18;;;10.93;;
49458;SDS011;35354;51.296;16.924;2023-06-19T00:59:11;10.85;;;9.77;;
49458;SDS011;35354;51.296;16.924;2023-06-19T01:01:44;10.48;;;9.48;;
49458;SDS011;35354;51.296;16.924;2023-06-19T01:04:10;11.10;;;10.05;;
49458;SDS011;35354;51.296;16.924;2023-06-19T01:06:44;10.85;;;9.75;;
49458;SDS011;35354;51.296;16.924;2023-06-19T01:09:17;10.45;;;9.38;;
49458;SDS011;35354;51.296;16.924;2023-06-19T01:11:55;11.02;;;9.88;;
49458;SDS011;35354;51.296;16.924;2023-06-19T01:14:25;11.30;;;10.02;;
49458;SDS011;35354;51.296;16.924;2023-06-19T01:16:53;11.35;;;10.25;;
49458;SDS011;35354;51.296;16.924;2023-06-19T01:19:20;10.95;;;9.82;;
49458;SDS011;35354;51.296;16.924;2023-06-19T01:21:46;10.90;;;9.80;;
49458;SDS011;35354;51.296;16.924;2023-06-19T01:24:12;11.38;;;10.30;;
49458;SDS011;35354;51.296;16.924;2023-06-19T01:26:38;11.60;;;10.35;;
49458;SDS011;35354;51.296;16.924;2023-06-19T01:29:04;12.05;;;10.32;;
49458;SDS011;35354;51.296;16.924;2023-06-19T01:33:58;11.38;;;10.27;;
49458;SDS011;35354;51.296;16.924;2023-06-19T01:36:26;11.23;;;10.23;;
49458;SDS011;35354;51.296;16.924;2023-06-19T01:38:52;11.65;;;10.07;;
49458;SDS011;35354;51.296;16.924;2023-06-19T01:41:21;11.10;;;9.95;;
49458;SDS011;35354;51.296;16.924;2023-06-19T01:43:48;12.10;;;10.90;;
49458;SDS011;35354;51.296;16.924;2023-06-19T01:46:14;11.40;;;10.30;;
49458;SDS011;35354;51.296;16.924;2023-06-19T01:48:40;10.82;;;9.65;;
49458;SDS011;35354;51.296;16.924;2023-06-19T01:51:05;11.00;;;10.00;;
49458;SDS011;35354;51.296;16.924;2023-06-19T01:53:31;10.27;;;9.27;;
49458;SDS011;35354;51.296;16.924;2023-06-19T01:55:57;12.50;;;11.30;;
49458;SDS011;35354;51.296;16.924;2023-06-19T01:58:23;12.57;;;11.38;;
49458;SDS011;35354;51.296;16.924;2023-06-19T02:00:48;12.02;;;10.77;;
49458;SDS011;35354;51.296;16.924;2023-06-19T02:03:14;11.38;;;10.38;;
49458;SDS011;35354;51.296;16.924;2023-06-19T02:05:39;10.90;;;9.85;;
49458;SDS011;35354;51.296;16.924;2023-06-19T02:08:05;12.45;;;11.15;;
49458;SDS011;35354;51.296;16.924;2023-06-19T02:10:31;11.52;;;10.40;;
49458;SDS011;35354;51.296;16.924;2023-06-19T02:12:56;13.07;;;11.68;;
49458;SDS011;35354;51.296;16.924;2023-06-19T02:15:22;12.80;;;11.50;;
49458;SDS011;35354;51.296;16.924;2023-06-19T02:17:47;10.68;;;9.68;;
49458;SDS011;35354;51.296;16.924;2023-06-19T02:20:13;12.70;;;11.48;;
49458;SDS011;35354;51.296;16.924;2023-06-19T02:22:38;13.02;;;11.20;;
49458;SDS011;35354;51.296;16.924;2023-06-19T02:25:04;14.15;;;11.05;;
49458;SDS011;35354;51.296;16.924;2023-06-19T02:27:31;12.88;;;11.10;;
49458;SDS011;35354;51.296;16.924;2023-06-19T02:29:56;12.38;;;11.07;;
49458;SDS011;35354;51.296;16.924;2023-06-19T02:32:22;13.18;;;10.18;;
49458;SDS011;35354;51.296;16.924;2023-06-19T02:34:47;12.13;;;10.82;;
49458;SDS011;35354;51.296;16.924;2023-06-19T02:37:12;12.40;;;11.18;;
49458;SDS011;35354;51.296;16.924;2023-06-19T02:39:38;13.40;;;10.95;;
49458;SDS011;35354;51.296;16.924;2023-06-19T02:42:03;11.85;;;10.65;;
49458;SDS011;35354;51.296;16.924;2023-06-19T02:44:30;12.75;;;11.45;;
49458;SDS011;35354;51.296;16.924;2023-06-19T02:46:56;11.63;;;10.45;;
49458;SDS011;35354;51.296;16.924;2023-06-19T02:49:21;12.80;;;11.50;;
49458;SDS011;35354;51.296;16.924;2023-06-19T02:51:46;12.88;;;11.68;;
49458;SDS011;35354;51.296;16.924;2023-06-19T02:54:12;13.48;;;12.25;;
49458;SDS011;35354;51.296;16.924;2023-06-19T02:56:37;15.10;;;13.48;;
49458;SDS011;35354;51.296;16.924;2023-06-19T02:59:03;15.98;;;11.75;;
49458;SDS011;35354;51.296;16.924;2023-06-19T03:01:28;12.95;;;11.68;;
49458;SDS011;35354;51.296;16.924;2023-06-19T03:03:54;14.20;;;12.73;;
49458;SDS011;35354;51.296;16.924;2023-06-19T03:06:19;14.02;;;12.65;;
49458;SDS011;35354;51.296;16.924;2023-06-19T03:08:45;13.15;;;11.75;;
49458;SDS011;35354;51.296;16.924;2023-06-19T03:11:10;14.18;;;12.27;;
49458;SDS011;35354;51.296;16.924;2023-06-19T03:13:47;13.85;;;12.45;;
49458;SDS011;35354;51.296;16.924;2023-06-19T03:16:12;12.73;;;11.43;;
49458;SDS011;35354;51.296;16.924;2023-06-19T03:18:39;13.40;;;12.15;;
49458;SDS011;35354;51.296;16.924;2023-06-19T03:21:05;12.40;;;11.10;;
49458;SDS011;35354;51.296;16.924;2023-06-19T03:23:30;13.68;;;12.38;;
49458;SDS011;35354;51.296;16.924;2023-06-19T03:25:55;14.30;;;12.80;;
49458;SDS011;35354;51.296;16.924;2023-06-19T03:28:22;13.40;;;12.00;;
49458;SDS011;35354;51.296;16.924;2023-06-19T03:30:47;14.50;;;13.05;;
49458;SDS011;35354;51.296;16.924;2023-06-19T03:33:12;14.02;;;12.63;;
49458;SDS011;35354;51.296;16.924;2023-06-19T03:35:38;14.40;;;12.52;;
49458;SDS011;35354;51.296;16.924;2023-06-19T03:38:03;14.60;;;12.20;;
49458;SDS011;35354;51.296;16.924;2023-06-19T03:40:28;12.88;;;11.57;;
49458;SDS011;35354;51.296;16.924;2023-06-19T03:42:54;13.40;;;12.00;;
49458;SDS011;35354;51.296;16.924;2023-06-19T03:45:19;14.02;;;12.13;;
49458;SDS011;35354;51.296;16.924;2023-06-19T03:47:44;12.80;;;11.50;;
49458;SDS011;35354;51.296;16.924;2023-06-19T03:50:10;12.32;;;11.13;;
49458;SDS011;35354;51.296;16.924;2023-06-19T03:52:38;14.10;;;11.35;;
49458;SDS011;35354;51.296;16.924;2023-06-19T03:55:04;13.90;;;11.65;;
49458;SDS011;35354;51.296;16.924;2023-06-19T03:57:30;12.95;;;11.60;;
49458;SDS011;35354;51.296;16.924;2023-06-19T03:59:56;14.73;;;12.45;;
49458;SDS011;35354;51.296;16.924;2023-06-19T04:02:21;13.63;;;12.23;;
49458;SDS011;35354;51.296;16.924;2023-06-19T04:04:47;14.20;;;12.75;;
49458;SDS011;35354;51.296;16.924;2023-06-19T04:07:13;14.05;;;12.60;;
49458;SDS011;35354;51.296;16.924;2023-06-19T04:09:38;14.50;;;13.10;;
49458;SDS011;35354;51.296;16.924;2023-06-19T04:12:04;14.88;;;13.38;;
49458;SDS011;35354;51.296;16.924;2023-06-19T04:14:30;15.30;;;13.68;;
49458;SDS011;35354;51.296;16.924;2023-06-19T04:16:55;15.27;;;12.88;;
49458;SDS011;35354;51.296;16.924;2023-06-19T04:19:20;14.68;;;13.20;;
49458;SDS011;35354;51.296;16.924;2023-06-19T04:21:45;13.07;;;11.77;;
49458;SDS011;35354;51.296;16.924;2023-06-19T04:24:11;14.02;;;12.50;;
49458;SDS011;35354;51.296;16.924;2023-06-19T04:26:36;14.00;;;12.55;;
49458;SDS011;35354;51.296;16.924;2023-06-19T04:29:02;12.20;;;11.10;;
49458;SDS011;35354;51.296;16.924;2023-06-19T04:31:28;13.10;;;11.90;;
49458;SDS011;35354;51.296;16.924;2023-06-19T04:33:54;12.55;;;11.45;;
49458;SDS011;35354;51.296;16.924;2023-06-19T04:36:21;13.73;;;12.52;;
49458;SDS011;35354;51.296;16.924;2023-06-19T04:38:48;13.95;;;12.18;;
49458;SDS011;35354;51.296;16.924;2023-06-19T04:41:16;14.02;;;12.73;;
49458;SDS011;35354;51.296;16.924;2023-06-19T04:43:41;14.70;;;12.98;;
49458;SDS011;35354;51.296;16.924;2023-06-19T04:46:07;14.38;;;12.98;;
49458;SDS011;35354;51.296;16.924;2023-06-19T04:48:32;13.48;;;12.27;;
49458;SDS011;35354;51.296;16.924;2023-06-19T04:51:00;14.23;;;12.95;;
49458;SDS011;35354;51.296;16.924;2023-06-19T04:53:26;13.20;;;11.93;;
49458;SDS011;35354;51.296;16.924;2023-06-19T04:55:52;14.00;;;12.60;;
49458;SDS011;35354;51.296;16.924;2023-06-19T04:58:19;12.98;;;11.77;;
49458;SDS011;35354;51.296;16.924;2023-06-19T05:00:46;15.55;;;14.05;;
49458;SDS011;35354;51.296;16.924;2023-06-19T05:03:17;13.85;;;12.65;;
49458;SDS011;35354;51.296;16.924;2023-06-19T05:05:43;14.25;;;12.85;;
49458;SDS011;35354;51.296;16.924;2023-06-19T05:08:09;13.80;;;12.57;;
49458;SDS011;35354;51.296;16.924;2023-06-19T05:10:34;15.20;;;13.77;;
49458;SDS011;35354;51.296;16.924;2023-06-19T05:13:00;14.68;;;13.38;;
49458;SDS011;35354;51.296;16.924;2023-06-19T05:15:26;15.27;;;13.88;;
49458;SDS011;35354;51.296;16.924;2023-06-19T05:17:52;14.73;;;13.43;;
49458;SDS011;35354;51.296;16.924;2023-06-19T05:20:17;14.52;;;13.23;;
49458;SDS011;35354;51.296;16.924;2023-06-19T05:22:43;16.92;;;15.27;;
49458;SDS011;35354;51.296;16.924;2023-06-19T05:25:08;15.43;;;13.95;;
49458;SDS011;35354;51.296;16.924;2023-06-19T05:27:34;14.40;;;13.10;;
49458;SDS011;35354;51.296;16.924;2023-06-19T05:29:59;15.63;;;14.13;;
49458;SDS011;35354;51.296;16.924;2023-06-19T05:32:24;14.77;;;13.35;;
49458;SDS011;35354;51.296;16.924;2023-06-19T05:34:50;14.10;;;12.80;;
49458;SDS011;35354;51.296;16.924;2023-06-19T05:37:16;13.13;;;11.88;;
49458;SDS011;35354;51.296;16.924;2023-06-19T05:39:41;12.27;;;11.18;;
49458;SDS011;35354;51.296;16.924;2023-06-19T05:42:07;13.13;;;11.90;;
49458;SDS011;35354;51.296;16.924;2023-06-19T05:44:32;10.50;;;9.60;;
49458;SDS011;35354;51.296;16.924;2023-06-19T05:46:57;10.98;;;10.05;;
49458;SDS011;35354;51.296;16.924;2023-06-19T05:49:23;11.65;;;10.65;;
49458;SDS011;35354;51.296;16.924;2023-06-19T05:51:48;11.75;;;10.15;;
49458;SDS011;35354;51.296;16.924;2023-06-19T05:54:14;10.68;;;9.77;;
49458;SDS011;35354;51.296;16.924;2023-06-19T05:56:39;11.35;;;10.35;;
49458;SDS011;35354;51.296;16.924;2023-06-19T05:59:05;10.65;;;9.65;;
49458;SDS011;35354;51.296;16.924;2023-06-19T06:01:30;10.68;;;9.68;;
49458;SDS011;35354;51.296;16.924;2023-06-19T06:03:55;10.52;;;9.63;;
49458;SDS011;35354;51.296;16.924;2023-06-19T06:06:24;11.20;;;10.10;;
49458;SDS011;35354;51.296;16.924;2023-06-19T06:08:50;10.68;;;9.63;;
49458;SDS011;35354;51.296;16.924;2023-06-19T06:11:20;10.60;;;9.70;;
49458;SDS011;35354;51.296;16.924;2023-06-19T06:13:45;10.95;;;9.95;;
49458;SDS011;35354;51.296;16.924;2023-06-19T06:16:10;10.23;;;9.32;;
49458;SDS011;35354;51.296;16.924;2023-06-19T06:18:36;10.57;;;9.57;;
49458;SDS011;35354;51.296;16.924;2023-06-19T06:21:01;9.85;;;8.95;;
49458;SDS011;35354;51.296;16.924;2023-06-19T06:23:27;10.73;;;9.63;;
49458;SDS011;35354;51.296;16.924;2023-06-19T06:25:52;10.02;;;9.00;;
49458;SDS011;35354;51.296;16.924;2023-06-19T06:28:17;11.32;;;7.55;;
49458;SDS011;35354;51.296;16.924;2023-06-19T06:30:43;9.43;;;8.60;;
49458;SDS011;35354;51.296;16.924;2023-06-19T06:33:09;8.68;;;7.82;;
49458;SDS011;35354;51.296;16.924;2023-06-19T06:35:34;7.97;;;7.35;;
49458;SDS011;35354;51.296;16.924;2023-06-19T06:38:01;7.97;;;7.30;;
49458;SDS011;35354;51.296;16.924;2023-06-19T06:40:26;8.15;;;7.55;;
49458;SDS011;35354;51.296;16.924;2023-06-19T06:42:52;8.93;;;8.23;;
49458;SDS011;35354;51.296;16.924;2023-06-19T06:45:18;8.45;;;7.65;;
49458;SDS011;35354;51.296;16.924;2023-06-19T06:47:44;9.45;;;8.48;;
49458;SDS011;35354;51.296;16.924;2023-06-19T06:50:09;8.63;;;7.93;;
49458;SDS011;35354;51.296;16.924;2023-06-19T06:52:35;8.10;;;7.40;;
49458;SDS011;35354;51.296;16.924;2023-06-19T06:55:00;9.13;;;8.30;;
49458;SDS011;35354;51.296;16.924;2023-06-19T06:57:25;8.30;;;7.70;;
49458;SDS011;35354;51.296;16.924;2023-06-19T06:59:51;8.52;;;7.72;;
49458;SDS011;35354;51.296;16.924;2023-06-19T07:02:16;10.38;;;9.27;;
49458;SDS011;35354;51.296;16.924;2023-06-19T07:04:42;9.98;;;9.00;;
49458;SDS011;35354;51.296;16.924;2023-06-19T07:07:07;10.73;;;8.45;;
49458;SDS011;35354;51.296;16.924;2023-06-19T07:09:33;8.88;;;8.18;;
49458;SDS011;35354;51.296;16.924;2023-06-19T07:11:59;8.93;;;8.13;;
49458;SDS011;35354;51.296;16.924;2023-06-19T07:14:24;9.27;;;8.48;;
49458;SDS011;35354;51.296;16.924;2023-06-19T07:16:49;8.88;;;7.93;;
49458;SDS011;35354;51.296;16.924;2023-06-19T07:19:15;8.45;;;7.65;;
49458;SDS011;35354;51.296;16.924;2023-06-19T07:21:41;8.80;;;7.90;;
49458;SDS011;35354;51.296;16.924;2023-06-19T07:24:06;8.30;;;7.50;;
49458;SDS011;35354;51.296;16.924;2023-06-19T07:26:32;11.73;;;7.45;;
49458;SDS011;35354;51.296;16.924;2023-06-19T07:28:58;7.80;;;7.10;;
49458;SDS011;35354;51.296;16.924;2023-06-19T07:31:23;8.52;;;7.82;;
49458;SDS011;35354;51.296;16.924;2023-06-19T07:33:48;8.35;;;7.65;;
49458;SDS011;35354;51.296;16.924;2023-06-19T07:36:14;8.70;;;7.90;;
49458;SDS011;35354;51.296;16.924;2023-06-19T07:38:41;8.63;;;7.93;;
49458;SDS011;35354;51.296;16.924;2023-06-19T07:41:08;8.63;;;7.88;;
49458;SDS011;35354;51.296;16.924;2023-06-19T07:43:34;7.72;;;7.03;;
49458;SDS011;35354;51.296;16.924;2023-06-19T07:46:00;8.63;;;7.88;;
49458;SDS011;35354;51.296;16.924;2023-06-19T07:48:26;10.00;;;8.95;;
49458;SDS011;35354;51.296;16.924;2023-06-19T07:50:52;8.27;;;7.57;;
49458;SDS011;35354;51.296;16.924;2023-06-19T07:53:18;8.35;;;7.60;;
49458;SDS011;35354;51.296;16.924;2023-06-19T07:55:43;8.25;;;7.55;;
49458;SDS011;35354;51.296;16.924;2023-06-19T07:58:08;8.93;;;8.13;;
49458;SDS011;35354;51.296;16.924;2023-06-19T08:00:34;8.30;;;7.60;;
49458;SDS011;35354;51.296;16.924;2023-06-19T08:03:00;8.18;;;7.57;;
49458;SDS011;35354;51.296;16.924;2023-06-19T08:05:25;9.00;;;7.00;;
49458;SDS011;35354;51.296;16.924;2023-06-19T08:07:51;7.75;;;7.10;;
49458;SDS011;35354;51.296;16.924;2023-06-19T08:10:16;8.20;;;7.47;;
49458;SDS011;35354;51.296;16.924;2023-06-19T08:12:42;11.10;;;7.15;;
49458;SDS011;35354;51.296;16.924;2023-06-19T08:15:08;7.55;;;6.85;;
49458;SDS011;35354;51.296;16.924;2023-06-19T08:17:34;7.07;;;6.43;;
49458;SDS011;35354;51.296;16.924;2023-06-19T08:20:00;7.80;;;6.78;;
49458;SDS011;35354;51.296;16.924;2023-06-19T08:22:25;6.88;;;6.18;;
49458;SDS011;35354;51.296;16.924;2023-06-19T08:24:50;7.18;;;6.57;;
49458;SDS011;35354;51.296;16.924;2023-06-19T08:27:16;7.07;;;6.47;;
49458;SDS011;35354;51.296;16.924;2023-06-19T08:29:41;8.27;;;7.25;;
49458;SDS011;35354;51.296;16.924;2023-06-19T08:32:08;7.38;;;6.78;;
49458;SDS011;35354;51.296;16.924;2023-06-19T08:34:34;6.88;;;6.35;;
49458;SDS011;35354;51.296;16.924;2023-06-19T08:36:59;6.90;;;6.32;;
49458;SDS011;35354;51.296;16.924;2023-06-19T08:39:25;7.28;;;6.30;;
49458;SDS011;35354;51.296;16.924;2023-06-19T08:41:51;6.90;;;6.40;;
49458;SDS011;35354;51.296;16.924;2023-06-19T08:44:18;7.35;;;6.75;;
49458;SDS011;35354;51.296;16.924;2023-06-19T08:46:43;7.25;;;6.55;;
49458;SDS011;35354;51.296;16.924;2023-06-19T08:49:09;6.72;;;6.13;;
49458;SDS011;35354;51.296;16.924;2023-06-19T08:51:35;7.20;;;6.60;;
49458;SDS011;35354;51.296;16.924;2023-06-19T08:54:04;7.47;;;6.88;;
49458;SDS011;35354;51.296;16.924;2023-06-19T08:56:31;6.35;;;5.82;;
49458;SDS011;35354;51.296;16.924;2023-06-19T08:59:08;7.22;;;6.72;;
49458;SDS011;35354;51.296;16.924;2023-06-19T09:01:34;7.18;;;6.47;;
49458;SDS011;35354;51.296;16.924;2023-06-19T09:03:59;6.53;;;5.97;;
49458;SDS011;35354;51.296;16.924;2023-06-19T09:06:24;6.30;;;5.70;;
49458;SDS011;35354;51.296;16.924;2023-06-19T09:08:59;5.78;;;5.30;;
49458;SDS011;35354;51.296;16.924;2023-06-19T09:11:25;6.40;;;5.80;;
49458;SDS011;35354;51.296;16.924;2023-06-19T09:13:56;7.25;;;6.13;;
49458;SDS011;35354;51.296;16.924;2023-06-19T09:16:22;5.82;;;5.43;;
49458;SDS011;35354;51.296;16.924;2023-06-19T09:18:49;8.60;;;6.10;;
49458;SDS011;35354;51.296;16.924;2023-06-19T09:21:15;6.72;;;5.40;;
49458;SDS011;35354;51.296;16.924;2023-06-19T09:23:46;6.22;;;5.72;;
49458;SDS011;35354;51.296;16.924;2023-06-19T09:26:15;6.10;;;5.70;;
49458;SDS011;35354;51.296;16.924;2023-06-19T09:28:41;6.10;;;5.60;;
49458;SDS011;35354;51.296;16.924;2023-06-19T09:31:07;7.70;;;7.07;;
49458;SDS011;35354;51.296;16.924;2023-06-19T09:33:33;6.72;;;6.20;;
49458;SDS011;35354;51.296;16.924;2023-06-19T09:36:02;7.65;;;6.82;;
49458;SDS011;35354;51.296;16.924;2023-06-19T09:38:30;6.90;;;6.30;;
49458;SDS011;35354;51.296;16.924;2023-06-19T09:40:57;6.68;;;6.10;;
49458;SDS011;35354;51.296;16.924;2023-06-19T09:43:29;7.82;;;7.03;;
49458;SDS011;35354;51.296;16.924;2023-06-19T09:46:03;7.32;;;6.63;;
49458;SDS011;35354;51.296;16.924;2023-06-19T09:48:30;9.38;;;6.97;;
49458;SDS011;35354;51.296;16.924;2023-06-19T09:53:28;11.80;;;7.50;;
49458;SDS011;35354;51.296;16.924;2023-06-19T09:55:55;7.95;;;7.22;;
49458;SDS011;35354;51.296;16.924;2023-06-19T09:58:21;8.00;;;7.13;;
49458;SDS011;35354;51.296;16.924;2023-06-19T10:00:47;15.73;;;8.52;;
49458;SDS011;35354;51.296;16.924;2023-06-19T10:03:16;9.68;;;7.65;;
49458;SDS011;35354;51.296;16.924;2023-06-19T10:05:41;8.00;;;7.20;;
49458;SDS011;35354;51.296;16.924;2023-06-19T10:08:07;7.30;;;6.60;;
49458;SDS011;35354;51.296;16.924;2023-06-19T10:10:33;8.15;;;7.40;;
49458;SDS011;35354;51.296;16.924;2023-06-19T10:12:59;9.52;;;7.80;;
49458;SDS011;35354;51.296;16.924;2023-06-19T10:15:41;8.95;;;8.07;;
49458;SDS011;35354;51.296;16.924;2023-06-19T10:18:12;7.38;;;6.63;;
49458;SDS011;35354;51.296;16.924;2023-06-19T10:20:41;7.68;;;7.03;;
49458;SDS011;35354;51.296;16.924;2023-06-19T10:23:10;8.20;;;7.40;;
49458;SDS011;35354;51.296;16.924;2023-06-19T10:25:41;8.18;;;7.38;;
49458;SDS011;35354;51.296;16.924;2023-06-19T10:30:53;9.82;;;6.65;;
49458;SDS011;35354;51.296;16.924;2023-06-19T10:35:48;7.28;;;6.68;;
49458;SDS011;35354;51.296;16.924;2023-06-19T10:38:16;6.57;;;5.97;;
49458;SDS011;35354;51.296;16.924;2023-06-19T10:40:42;31.30;;;8.32;;
49458;SDS011;35354;51.296;16.924;2023-06-19T10:43:09;6.72;;;6.05;;
49458;SDS011;35354;51.296;16.924;2023-06-19T10:45:35;9.35;;;6.32;;
49458;SDS011;35354;51.296;16.924;2023-06-19T10:48:01;6.40;;;5.85;;
49458;SDS011;35354;51.296;16.924;2023-06-19T10:50:28;5.95;;;5.38;;
49458;SDS011;35354;51.296;16.924;2023-06-19T10:52:54;7.90;;;6.15;;
49458;SDS011;35354;51.296;16.924;2023-06-19T10:55:20;6.00;;;5.40;;
49458;SDS011;35354;51.296;16.924;2023-06-19T10:57:48;5.75;;;5.25;;
49458;SDS011;35354;51.296;16.924;2023-06-19T11:02:50;6.78;;;6.20;;
49458;SDS011;35354;51.296;16.924;2023-06-19T11:05:15;6.28;;;5.78;;
49458;SDS011;35354;51.296;16.924;2023-06-19T11:07:41;7.13;;;6.40;;
49458;SDS011;35354;51.296;16.924;2023-06-19T11:10:07;6.55;;;6.05;;
49458;SDS011;35354;51.296;16.924;2023-06-19T11:12:32;6.95;;;6.35;;
49458;SDS011;35354;51.296;16.924;2023-06-19T11:15:02;6.60;;;6.07;;
49458;SDS011;35354;51.296;16.924;2023-06-19T11:17:28;6.70;;;6.07;;
49458;SDS011;35354;51.296;16.924;2023-06-19T11:19:56;6.63;;;6.13;;
49458;SDS011;35354;51.296;16.924;2023-06-19T11:22:22;6.07;;;5.32;;
49458;SDS011;35354;51.296;16.924;2023-06-19T11:24:47;5.85;;;5.35;;
49458;SDS011;35354;51.296;16.924;2023-06-19T11:27:22;6.35;;;5.75;;
49458;SDS011;35354;51.296;16.924;2023-06-19T11:29:58;6.53;;;5.97;;
49458;SDS011;35354;51.296;16.924;2023-06-19T11:32:30;6.47;;;5.97;;
49458;SDS011;35354;51.296;16.924;2023-06-19T11:34:57;6.70;;;6.20;;
49458;SDS011;35354;51.296;16.924;2023-06-19T11:37:22;7.35;;;5.38;;
49458;SDS011;35354;51.296;16.924;2023-06-19T11:39:49;6.10;;;5.60;;
49458;SDS011;35354;51.296;16.924;2023-06-19T11:42:17;5.85;;;5.35;;
49458;SDS011;35354;51.296;16.924;2023-06-19T11:47:20;6.65;;;6.13;;
49458;SDS011;35354;51.296;16.924;2023-06-19T11:49:50;6.78;;;6.10;;
49458;SDS011;35354;51.296;16.924;2023-06-19T11:52:16;5.93;;;5.43;;
49458;SDS011;35354;51.296;16.924;2023-06-19T11:54:41;6.53;;;5.93;;
49458;SDS011;35354;51.296;16.924;2023-06-19T11:57:08;6.60;;;6.00;;
49458;SDS011;35354;51.296;16.924;2023-06-19T11:59:36;6.50;;;5.90;;
49458;SDS011;35354;51.296;16.924;2023-06-19T12:02:03;5.95;;;5.45;;
49458;SDS011;35354;51.296;16.924;2023-06-19T12:04:29;7.03;;;6.43;;
49458;SDS011;35354;51.296;16.924;2023-06-19T12:06:55;6.78;;;6.18;;
49458;SDS011;35354;51.296;16.924;2023-06-19T12:09:20;7.15;;;6.43;;
49458;SDS011;35354;51.296;16.924;2023-06-19T12:11:45;5.85;;;5.45;;
49458;SDS011;35354;51.296;16.924;2023-06-19T12:14:11;6.57;;;5.97;;
49458;SDS011;35354;51.296;16.924;2023-06-19T12:16:36;6.68;;;6.18;;
49458;SDS011;35354;51.296;16.924;2023-06-19T12:19:02;6.68;;;6.18;;
49458;SDS011;35354;51.296;16.924;2023-06-19T12:21:27;5.93;;;5.50;;
49458;SDS011;35354;51.296;16.924;2023-06-19T12:23:53;6.45;;;5.82;;
49458;SDS011;35354;51.296;16.924;2023-06-19T12:26:18;7.20;;;6.50;;
49458;SDS011;35354;51.296;16.924;2023-06-19T12:28:44;6.70;;;6.10;;
49458;SDS011;35354;51.296;16.924;2023-06-19T12:31:10;7.35;;;6.60;;
49458;SDS011;35354;51.296;16.924;2023-06-19T12:33:35;6.93;;;6.07;;
49458;SDS011;35354;51.296;16.924;2023-06-19T12:36:02;6.93;;;5.90;;
49458;SDS011;35354;51.296;16.924;2023-06-19T12:38:27;6.78;;;6.28;;
49458;SDS011;35354;51.296;16.924;2023-06-19T12:40:52;6.60;;;6.05;;
49458;SDS011;35354;51.296;16.924;2023-06-19T12:43:18;7.07;;;6.07;;
49458;SDS011;35354;51.296;16.924;2023-06-19T12:45:43;6.47;;;5.97;;
49458;SDS011;35354;51.296;16.924;2023-06-19T12:48:10;6.25;;;5.70;;
49458;SDS011;35354;51.296;16.924;2023-06-19T12:50:35;6.70;;;6.10;;
49458;SDS011;35354;51.296;16.924;2023-06-19T12:53:00;6.25;;;5.65;;
49458;SDS011;35354;51.296;16.924;2023-06-19T12:55:26;7.15;;;6.55;;
49458;SDS011;35354;51.296;16.924;2023-06-19T12:57:51;7.53;;;6.53;;
49458;SDS011;35354;51.296;16.924;2023-06-19T13:00:16;6.82;;;6.18;;
49458;SDS011;35354;51.296;16.924;2023-06-19T13:02:42;6.82;;;6.22;;
49458;SDS011;35354;51.296;16.924;2023-06-19T13:05:08;8.48;;;6.85;;
49458;SDS011;35354;51.296;16.924;2023-06-19T13:07:34;6.82;;;6.22;;
49458;SDS011;35354;51.296;16.924;2023-06-19T13:09:59;6.38;;;5.88;;
49458;SDS011;35354;51.296;16.924;2023-06-19T13:12:25;6.30;;;5.65;;
49458;SDS011;35354;51.296;16.924;2023-06-19T13:14:50;6.57;;;6.00;;
49458;SDS011;35354;51.296;16.924;2023-06-19T13:17:16;6.68;;;6.07;;
49458;SDS011;35354;51.296;16.924;2023-06-19T13:19:41;6.75;;;6.18;;
49458;SDS011;35354;51.296;16.924;2023-06-19T13:22:07;7.13;;;6.53;;
49458;SDS011;35354;51.296;16.924;2023-06-19T13:24:32;7.05;;;6.43;;
49458;SDS011;35354;51.296;16.924;2023-06-19T13:26:58;7.13;;;6.45;;
49458;SDS011;35354;51.296;16.924;2023-06-19T13:29:23;7.40;;;6.68;;
49458;SDS011;35354;51.296;16.924;2023-06-19T13:31:48;7.20;;;6.38;;
49458;SDS011;35354;51.296;16.924;2023-06-19T13:34:14;7.15;;;6.50;;
49458;SDS011;35354;51.296;16.924;2023-06-19T13:36:39;7.75;;;7.03;;
49458;SDS011;35354;51.296;16.924;2023-06-19T13:39:05;7.53;;;6.20;;
49458;SDS011;35354;51.296;16.924;2023-06-19T13:41:30;6.70;;;6.00;;
49458;SDS011;35354;51.296;16.924;2023-06-19T13:43:57;7.32;;;6.72;;
49458;SDS011;35354;51.296;16.924;2023-06-19T13:46:23;7.32;;;6.63;;
49458;SDS011;35354;51.296;16.924;2023-06-19T13:48:49;6.43;;;5.82;;
49458;SDS011;35354;51.296;16.924;2023-06-19T13:51:16;7.45;;;6.85;;
49458;SDS011;35354;51.296;16.924;2023-06-19T13:53:42;7.07;;;6.50;;
49458;SDS011;35354;51.296;16.924;2023-06-19T13:56:09;7.28;;;6.57;;
49458;SDS011;35354;51.296;16.924;2023-06-19T13:58:35;6.80;;;6.20;;
49458;SDS011;35354;51.296;16.924;2023-06-19T14:01:00;6.88;;;6.18;;
49458;SDS011;35354;51.296;16.924;2023-06-19T14:03:25;6.30;;;5.72;;
49458;SDS011;35354;51.296;16.924;2023-06-19T14:05:51;6.40;;;5.90;;
49458;SDS011;35354;51.296;16.924;2023-06-19T14:08:16;7.63;;;7.03;;
49458;SDS011;35354;51.296;16.924;2023-06-19T14:10:41;6.93;;;6.22;;
49458;SDS011;35354;51.296;16.924;2023-06-19T14:13:07;7.20;;;6.57;;
49458;SDS011;35354;51.296;16.924;2023-06-19T14:15:33;8.30;;;7.03;;
49458;SDS011;35354;51.296;16.924;2023-06-19T14:17:59;7.57;;;6.88;;
49458;SDS011;35354;51.296;16.924;2023-06-19T14:20:24;6.72;;;6.20;;
49458;SDS011;35354;51.296;16.924;2023-06-19T14:22:50;7.60;;;6.90;;
49458;SDS011;35354;51.296;16.924;2023-06-19T14:25:15;12.10;;;6.45;;
49458;SDS011;35354;51.296;16.924;2023-06-19T14:27:40;7.50;;;6.85;;
49458;SDS011;35354;51.296;16.924;2023-06-19T14:30:06;8.52;;;6.55;;
49458;SDS011;35354;51.296;16.924;2023-06-19T14:32:33;7.18;;;6.57;;